Time;durP1;ratioP1;P1;durP2;ratioP2;P2;SDS_P1;SDS_P2;PMS_P1;PMS_P2;Temp;Humidity;BMP_temperature;BMP_pressure;BME280_temperature;BME280_humidity;BME280_pressure;Samples;Min_cycle;Max_cycle;Signal;HPM_P1;HPM_P2
2021/12/13 00:01:31;;;;;;;7.45;1.80;;;24.20;87.50;;;;;;5079375;28;20025;-70
2021/12/13 00:04:05;;;;;;;9.23;2.25;;;24.30;86.80;;;;;;5079236;28;20031;-72
2021/12/13 00:06:37;;;;;;;8.20;2.28;;;24.30;86.30;;;;;;5062229;28;20753;-73
2021/12/13 00:09:11;;;;;;;10.57;2.40;;;24.50;84.50;;;;;;5079349;28;20543;-67
2021/12/13 00:11:48;;;;;;;5.88;2.30;;;24.40;82.60;;;;;;5079095;28;20020;-72
2021/12/13 00:14:22;;;;;;;7.57;2.03;;;24.20;85.70;;;;;;5067045;28;20503;-74
2021/12/13 00:16:58;;;;;;;5.45;2.10;;;24.20;86.50;;;;;;5078392;28;20028;-71
2021/12/13 00:19:38;;;;;;;8.10;2.28;;;24.40;83.80;;;;;;5079348;28;20032;-72
2021/12/13 00:22:19;;;;;;;11.43;2.70;;;24.50;83.20;;;;;;5079867;28;20093;-68
2021/12/13 00:24:48;;;;;;;5.55;2.00;;;24.60;81.10;;;;;;5079095;28;20039;-71
2021/12/13 00:27:22;;;;;;;9.25;2.30;;;24.60;86.40;;;;;;5079379;28;20036;-68
2021/12/13 00:30:08;;;;;;;8.93;2.10;;;25.10;83.60;;;;;;5081296;28;20035;-71
2021/12/13 00:33:03;;;;;;;7.13;2.20;;;25.10;80.40;;;;;;5074709;28;20069;-71
2021/12/13 00:35:55;;;;;;;8.88;2.30;;;25.10;80.70;;;;;;5075346;28;20138;-71
2021/12/13 00:38:26;;;;;;;5.25;2.17;;;25.30;78.40;;;;;;5074753;28;20020;-70
2021/12/13 00:41:05;;;;;;;5.88;2.05;;;25.40;77.20;;;;;;5065657;28;20090;-74
2021/12/13 00:43:53;;;;;;;7.75;2.35;;;25.40;79.60;;;;;;5079299;28;20400;-70
2021/12/13 00:46:22;;;;;;;5.28;1.90;;;25.70;77.90;;;;;;5079560;28;20163;-66
2021/12/13 00:48:52;;;;;;;11.43;2.50;;;25.90;76.20;;;;;;5079341;28;20176;-71
2021/12/13 00:51:28;;;;;;;6.93;2.00;;;26.00;79.70;;;;;;5079501;28;20081;-75
2021/12/13 00:53:58;;;;;;;8.88;2.05;;;25.90;78.80;;;;;;5080591;28;20069;-67
2021/12/13 00:56:49;;;;;;;8.55;1.98;;;25.80;75.60;;;;;;5064714;28;20036;-75
2021/12/13 01:00:08;;;;;;;8.55;1.73;;;25.80;72.90;;;;;;5078848;28;20460;-67
2021/12/13 01:03:04;;;;;;;9.00;2.10;;;26.00;72.30;;;;;;5060705;28;20400;-73
2021/12/13 01:06:02;;;;;;;6.45;2.60;;;26.00;74.70;;;;;;5080604;28;20036;-71
2021/12/13 01:09:27;;;;;;;6.00;2.20;;;26.40;74.30;;;;;;5084753;28;20027;-73
2021/12/13 01:12:05;;;;;;;7.97;3.40;;;26.90;77.20;;;;;;5004879;28;20027;-71
2021/12/13 01:14:54;;;;;;;8.27;2.22;;;27.40;73.20;;;;;;4997953;28;20583;-72
2021/12/13 01:17:42;;;;;;;7.20;1.90;;;27.50;72.30;;;;;;5064788;28;20495;-70
2021/12/13 01:23:44;;;;;;;6.28;1.95;;;27.80;64.00;;;;;;5058468;28;20031;-70
2021/12/13 01:26:28;;;;;;;7.00;1.85;;;28.00;67.20;;;;;;5068695;28;20024;-70
2021/12/13 01:29:10;;;;;;;6.35;1.80;;;28.00;64.80;;;;;;5086740;28;20107;-70
2021/12/13 01:31:48;;;;;;;5.13;2.03;;;28.00;63.60;;;;;;5087450;28;20013;-69
2021/12/13 01:34:16;;;;;;;6.22;1.67;;;27.90;66.50;;;;;;5087167;28;20479;-70
2021/12/13 01:37:28;;;;;;;6.43;2.42;;;27.60;64.10;;;;;;5082907;28;20040;-69
2021/12/13 01:39:54;;;;;;;7.07;1.75;;;27.60;65.80;;;;;;5087009;28;20689;-73
2021/12/13 01:42:26;;;;;;;3.85;1.50;;;27.60;67.30;;;;;;5072306;28;20505;-69
2021/12/13 01:44:58;;;;;;;7.30;2.10;;;27.90;67.80;;;;;;5090789;28;20127;-72
2021/12/13 01:47:29;;;;;;;5.30;1.85;;;28.10;63.90;;;;;;5090198;28;20484;-72
2021/12/13 01:50:16;;;;;;;7.57;2.25;;;28.30;64.20;;;;;;5087659;28;20081;-75
2021/12/13 01:52:45;;;;;;;4.00;1.52;;;28.50;65.40;;;;;;5090406;28;20028;-71
2021/12/13 01:55:23;;;;;;;5.38;1.88;;;28.70;60.90;;;;;;5090588;28;20095;-72
2021/12/13 01:58:07;;;;;;;7.13;1.77;;;29.00;63.10;;;;;;5089412;28;20047;-70
2021/12/13 02:03:37;;;;;;;8.75;2.25;;;29.40;58.50;;;;;;5090680;28;20051;-72
2021/12/13 02:06:04;;;;;;;4.45;1.90;;;29.20;60.20;;;;;;5084551;28;20028;-74
2021/12/13 02:08:31;;;;;;;8.48;2.42;;;29.10;60.50;;;;;;5064609;28;20028;-70
2021/12/13 02:10:59;;;;;;;5.38;1.75;;;28.80;60.30;;;;;;5083846;28;20070;-72
2021/12/13 02:13:37;;;;;;;7.55;1.80;;;29.00;62.50;;;;;;5082491;28;20531;-72
2021/12/13 02:18:56;;;;;;;8.38;2.13;;;29.10;64.90;;;;;;5079772;28;20506;-75
2021/12/13 02:21:33;;;;;;;5.55;2.10;;;29.60;59.90;;;;;;5078700;28;20111;-72
2021/12/13 02:24:12;;;;;;;8.77;1.85;;;30.00;60.00;;;;;;5066286;28;20040;-76
2021/12/13 02:26:42;;;;;;;5.40;2.10;;;30.30;63.00;;;;;;5080780;28;20400;-72
2021/12/13 02:29:23;;;;;;;6.53;2.13;;;30.60;57.10;;;;;;5079653;28;20018;-75
2021/12/13 02:31:50;;;;;;;6.43;2.05;;;30.90;56.50;;;;;;5079916;28;20625;-69
2021/12/13 02:34:19;;;;;;;8.07;3.03;;;30.90;60.80;;;;;;5065602;28;20020;-71
2021/12/13 02:36:50;;;;;;;4.57;2.00;;;31.10;57.80;;;;;;5079193;28;20126;-71
2021/12/13 02:39:24;;;;;;;7.32;2.00;;;31.50;59.10;;;;;;5079813;28;20059;-71
2021/12/13 02:41:52;;;;;;;10.60;2.70;;;31.30;55.10;;;;;;5079887;28;20032;-74
2021/12/13 02:44:23;;;;;;;6.80;3.13;;;31.40;53.20;;;;;;5079664;28;20047;-71
2021/12/13 02:46:53;;;;;;;7.78;2.40;;;31.00;53.20;;;;;;5082901;28;20480;-71
2021/12/13 02:49:20;;;;;;;8.70;2.13;;;30.80;54.30;;;;;;5078234;28;20056;-71
2021/12/13 02:52:01;;;;;;;8.10;2.33;;;30.60;54.20;;;;;;5093620;28;20029;-70
2021/12/13 02:54:33;;;;;;;7.88;2.38;;;30.80;53.90;;;;;;5078297;28;20029;-73
2021/12/13 02:57:24;;;;;;;7.55;2.42;;;30.80;54.80;;;;;;5078077;28;20111;-71
2021/12/13 03:00:12;;;;;;;5.72;2.20;;;31.00;53.00;;;;;;5078748;28;20119;-71
2021/12/13 03:02:43;;;;;;;5.85;1.95;;;30.80;53.70;;;;;;5079361;28;20060;-71
2021/12/13 03:05:18;;;;;;;6.88;2.03;;;31.00;56.20;;;;;;5077920;28;20059;-72
2021/12/13 03:07:49;;;;;;;4.40;2.15;;;31.40;52.70;;;;;;5077965;28;20388;-74
2021/12/13 03:10:26;;;;;;;6.83;2.13;;;31.70;54.00;;;;;;5092842;28;20418;-72
2021/12/13 03:12:53;;;;;;;5.93;1.95;;;31.80;51.20;;;;;;5064395;28;20038;-71
2021/12/13 03:15:23;;;;;;;5.15;2.47;;;31.70;52.30;;;;;;4375676;28;10000171;-71
2021/12/13 03:17:59;;;;;;;5.78;2.20;;;31.40;53.70;;;;;;5062918;28;20842;-73
2021/12/13 03:20:26;;;;;;;5.22;2.15;;;31.10;52.20;;;;;;5072187;28;20034;-70
2021/12/13 03:23:22;;;;;;;4.93;2.05;;;31.00;51.60;;;;;;5075187;28;20051;-70
2021/12/13 03:26:23;;;;;;;7.90;2.20;;;31.00;53.50;;;;;;5089530;28;20028;-72
2021/12/13 03:29:02;;;;;;;9.90;2.30;;;31.30;51.40;;;;;;5062026;28;20039;-70
2021/12/13 03:31:43;;;;;;;4.55;1.52;;;31.20;51.30;;;;;;5074399;28;20039;-73
2021/12/13 03:34:19;;;;;;;5.88;2.00;;;31.40;54.10;;;;;;5063059;28;20024;-73
2021/12/13 03:36:52;;;;;;;6.53;2.03;;;31.60;53.00;;;;;;5073912;28;20032;-75
2021/12/13 03:39:31;;;;;;;7.10;1.83;;;31.70;54.50;;;;;;5062396;28;20028;-72
2021/12/13 03:42:01;;;;;;;4.25;2.03;;;32.40;51.20;;;;;;5075246;28;20391;-73
2021/12/13 03:44:34;;;;;;;6.82;1.90;;;32.80;51.30;;;;;;5073802;28;20040;-73
2021/12/13 03:47:09;;;;;;;4.57;1.80;;;33.30;51.20;;;;;;5059185;28;20059;-71
2021/12/13 03:49:46;;;;;;;3.92;1.65;;;33.50;49.10;;;;;;5076726;28;20027;-71
2021/12/13 03:52:17;;;;;;;7.30;4.47;;;33.10;47.00;;;;;;5075552;28;20885;-70
2021/12/13 03:54:45;;;;;;;4.88;1.80;;;33.10;52.30;;;;;;5076155;28;20031;-71
2021/12/13 03:57:15;;;;;;;4.43;1.80;;;32.90;46.90;;;;;;5076642;28;20024;-72
2021/12/13 03:59:43;;;;;;;5.80;2.15;;;32.40;47.40;;;;;;5075656;28;20030;-74
2021/12/13 04:02:16;;;;;;;6.75;2.72;;;32.00;48.60;;;;;;5075556;28;20028;-72
2021/12/13 04:04:48;;;;;;;4.20;1.60;;;32.30;49.40;;;;;;5075799;28;20024;-72
2021/12/13 04:07:23;;;;;;;;;;;32.10;48.00;;;;;;5074958;28;20040;-73
2021/12/13 04:09:55;;;;;;;4.13;1.58;;;32.10;52.20;;;;;;5060527;28;20425;-73
2021/12/13 04:12:33;;;;;;;6.28;1.60;;;32.70;50.70;;;;;;5060588;28;20047;-66
2021/12/13 04:15:14;;;;;;;5.47;2.22;;;33.30;51.40;;;;;;5073278;28;20679;-72
2021/12/13 04:20:35;;;;;;;7.18;2.30;;;33.30;48.70;;;;;;5070621;28;20082;-65
2021/12/13 04:23:07;;;;;;;5.10;2.42;;;32.30;50.70;;;;;;5073733;28;20402;-69
2021/12/13 04:25:39;;;;;;;6.03;1.95;;;32.00;52.60;;;;;;5073447;28;20039;-66
2021/12/13 04:28:18;;;;;;;6.18;2.90;;;31.90;52.80;;;;;;5055686;28;20036;-67
2021/12/13 04:30:50;;;;;;;6.70;2.35;;;32.10;52.80;;;;;;5073335;28;20039;-71
2021/12/13 04:33:24;;;;;;;;;;;32.10;52.10;;;;;;5074557;28;20024;-69
2021/12/13 04:35:55;;;;;;;9.73;3.00;;;32.00;52.30;;;;;;5059471;28;19912;-64
2021/12/13 04:38:29;;;;;;;10.55;2.90;;;31.70;52.10;;;;;;5059616;28;20032;-65
2021/12/13 04:40:56;;;;;;;6.35;2.05;;;31.30;53.90;;;;;;5072460;28;20118;-68
2021/12/13 04:43:24;;;;;;;6.32;2.22;;;31.40;52.40;;;;;;5060677;28;20036;-70
2021/12/13 04:45:58;;;;;;;7.88;2.33;;;31.60;51.60;;;;;;5052712;28;20049;-72
2021/12/13 04:48:31;;;;;;;4.55;2.20;;;31.30;51.80;;;;;;5052377;28;20036;-66
2021/12/13 04:51:11;;;;;;;5.57;2.45;;;30.90;53.80;;;;;;5051729;28;20416;-72
2021/12/13 04:53:46;;;;;;;10.38;2.75;;;30.50;53.90;;;;;;5052436;28;20034;-67
2021/12/13 04:56:21;;;;;;;6.90;2.25;;;30.10;55.30;;;;;;5051140;28;20135;-66
2021/12/13 04:58:51;;;;;;;6.85;2.10;;;30.00;55.90;;;;;;5039316;28;20024;-71
2021/12/13 05:01:23;;;;;;;10.65;4.07;;;29.80;57.60;;;;;;5051269;28;20368;-68
2021/12/13 05:03:56;;;;;;;9.38;2.55;;;29.70;56.00;;;;;;5052168;28;20024;-69
2021/12/13 05:06:27;;;;;;;6.47;2.92;;;29.90;56.60;;;;;;5051273;28;20458;-71
2021/12/13 05:08:58;;;;;;;11.40;2.83;;;29.90;56.30;;;;;;5051728;28;20067;-70
2021/12/13 05:11:40;;;;;;;6.43;2.63;;;29.80;56.80;;;;;;5051199;28;20029;-68
2021/12/13 05:14:09;;;;;;;9.77;3.58;;;29.80;57.00;;;;;;5052015;28;20021;-66
2021/12/13 05:16:56;;;;;;;9.40;2.45;;;29.50;57.30;;;;;;5050224;28;20032;-69
2021/12/13 05:19:30;;;;;;;10.90;2.70;;;29.30;58.70;;;;;;5038092;28;20086;-68
2021/12/13 05:21:59;;;;;;;13.68;2.97;;;29.10;57.40;;;;;;5050479;28;20036;-67
2021/12/13 05:24:32;;;;;;;10.32;2.53;;;28.90;58.00;;;;;;5052393;28;20020;-68
2021/12/13 05:27:14;;;;;;;10.68;2.45;;;28.90;59.30;;;;;;5035370;28;20119;-68
2021/12/13 05:29:49;;;;;;;6.60;2.05;;;28.90;57.80;;;;;;5036966;28;20044;-69
2021/12/13 05:32:31;;;;;;;9.18;2.47;;;28.50;58.40;;;;;;5050630;28;20033;-68
2021/12/13 05:35:08;;;;;;;6.97;2.75;;;28.20;59.50;;;;;;5034385;28;20119;-66
2021/12/13 05:37:45;;;;;;;8.43;2.55;;;28.30;59.90;;;;;;5049900;28;20036;-71
2021/12/13 05:40:19;;;;;;;8.93;3.40;;;28.50;58.80;;;;;;5052140;28;20031;-70
2021/12/13 05:42:51;;;;;;;5.47;2.40;;;28.20;60.90;;;;;;5052316;28;20513;-69
2021/12/13 05:45:20;;;;;;;;;;;28.70;59.50;;;;;;5056388;22;21066;-72
2021/12/13 05:48:15;;;;;;;8.90;3.05;;;28.90;58.30;;;;;;4985400;28;19918;-64
2021/12/13 05:50:58;;;;;;;10.15;3.05;;;29.20;58.30;;;;;;4984809;28;20028;-66
2021/12/13 05:53:37;;;;;;;12.60;2.97;;;29.70;58.90;;;;;;4986837;28;20029;-66
2021/12/13 05:56:10;;;;;;;7.65;2.20;;;29.70;57.60;;;;;;4986565;28;20034;-71
2021/12/13 05:58:46;;;;;;;9.05;2.83;;;29.20;58.20;;;;;;4986467;28;20062;-64
2021/12/13 06:01:24;;;;;;;6.88;2.05;;;28.90;58.80;;;;;;4986104;28;20033;-69
2021/12/13 06:03:56;;;;;;;9.25;2.20;;;28.40;61.10;;;;;;4984853;28;20035;-72
2021/12/13 06:06:28;;;;;;;10.77;3.17;;;28.30;60.90;;;;;;4986300;28;20117;-72
2021/12/13 06:08:58;;;;;;;7.67;2.20;;;27.70;60.70;;;;;;4986708;28;20056;-70
2021/12/13 06:11:32;;;;;;;7.28;2.03;;;28.20;60.60;;;;;;4985226;28;20667;-63
2021/12/13 06:14:18;;;;;;;8.88;2.30;;;28.40;60.40;;;;;;4986563;28;20069;-64
2021/12/13 06:17:13;;;;;;;7.85;2.55;;;28.70;59.50;;;;;;4986057;28;20059;-69
2021/12/13 06:19:55;;;;;;;6.88;2.30;;;28.60;59.60;;;;;;4987675;28;20034;-66
2021/12/13 06:22:25;;;;;;;4.53;1.92;;;28.80;59.50;;;;;;4986522;28;20044;-71
2021/12/13 06:24:59;;;;;;;6.47;2.20;;;28.60;59.60;;;;;;4989239;28;20118;-66
2021/12/13 06:27:50;;;;;;;7.25;2.25;;;28.60;59.70;;;;;;4985316;28;20042;-72
2021/12/13 06:30:24;;;;;;;5.50;2.30;;;28.50;59.60;;;;;;4990211;28;20030;-68
2021/12/13 06:33:13;;;;;;;11.00;2.53;;;28.50;60.50;;;;;;4988770;28;20030;-71
2021/12/13 06:36:01;;;;;;;9.13;2.30;;;28.70;59.30;;;;;;4988314;28;20741;-66
2021/12/13 06:38:36;;;;;;;9.60;2.80;;;28.60;59.70;;;;;;4987530;28;20079;-64
2021/12/13 06:41:15;;;;;;;5.32;2.40;;;28.60;59.80;;;;;;4986786;28;20640;-63
2021/12/13 06:43:53;;;;;;;6.70;2.22;;;29.00;58.40;;;;;;4986669;28;20064;-72
2021/12/13 06:46:23;;;;;;;6.25;2.55;;;29.20;57.90;;;;;;4987892;28;20407;-71
2021/12/13 06:49:05;;;;;;;8.35;1.67;;;28.50;59.30;;;;;;4988070;28;20031;-67
2021/12/13 06:51:52;;;;;;;7.93;2.40;;;28.80;59.30;;;;;;4989317;28;20030;-70
2021/12/13 06:54:25;;;;;;;7.55;2.25;;;29.60;57.30;;;;;;4989035;28;20318;-65
2021/12/13 06:57:21;;;;;;;10.10;2.20;;;29.50;57.40;;;;;;4988943;28;20030;-66
2021/12/13 07:00:09;;;;;;;8.88;2.10;;;29.30;57.30;;;;;;4975474;28;20054;-64
2021/12/13 07:02:41;;;;;;;5.32;1.92;;;28.80;58.70;;;;;;4988241;28;20113;-69
2021/12/13 07:05:24;;;;;;;10.55;4.38;;;29.50;57.80;;;;;;4989155;28;20387;-71
2021/12/13 07:08:03;;;;;;;12.77;8.20;;;28.70;58.50;;;;;;4988034;28;20074;-66
2021/12/13 07:10:38;;;;;;;18.25;11.50;;;28.90;60.70;;;;;;4987373;28;20475;-67
2021/12/13 07:13:11;;;;;;;6.93;3.80;;;29.50;57.00;;;;;;4988564;28;20117;-67
2021/12/13 07:15:40;;;;;;;8.80;3.60;;;29.50;59.30;;;;;;4989956;28;20537;-68
2021/12/13 07:18:13;;;;;;;6.13;2.78;;;29.70;56.80;;;;;;4989447;28;20026;-69
2021/12/13 07:20:52;;;;;;;7.28;2.67;;;29.40;56.60;;;;;;4986708;28;20050;-64
2021/12/13 07:23:19;;;;;;;6.13;1.95;;;29.50;56.70;;;;;;4640525;28;10000230;-67
2021/12/13 07:25:49;;;;;;;5.78;1.90;;;28.80;58.10;;;;;;4985334;28;20111;-68
2021/12/13 07:28:37;;;;;;;5.72;2.60;;;28.50;58.20;;;;;;4984288;28;20034;-69
2021/12/13 07:31:07;;;;;;;6.50;2.90;;;28.50;59.10;;;;;;5002034;28;20057;-65
2021/12/13 07:33:43;;;;;;;10.00;4.50;;;29.00;57.50;;;;;;4986877;28;20031;-68
2021/12/13 07:36:19;;;;;;;7.70;2.63;;;28.90;57.60;;;;;;4985006;28;21196;-65
2021/12/13 07:38:53;;;;;;;9.38;2.80;;;28.60;57.70;;;;;;4985099;28;20026;-66
2021/12/13 07:41:21;;;;;;;6.85;2.63;;;28.00;59.10;;;;;;4986634;28;20263;-68
2021/12/13 07:43:48;;;;;;;6.70;2.00;;;28.00;60.90;;;;;;4986761;28;20171;-67
2021/12/13 07:46:20;;;;;;;6.15;2.10;;;28.50;59.70;;;;;;4985338;28;20073;-65
2021/12/13 07:48:49;;;;;;;5.10;1.98;;;29.00;58.00;;;;;;4982788;28;20083;-69
2021/12/13 07:51:39;;;;;;;7.07;2.50;;;29.10;57.40;;;;;;4984586;28;20720;-69
2021/12/13 07:54:11;;;;;;;6.97;2.35;;;28.70;58.30;;;;;;4986346;28;20079;-68
2021/12/13 07:56:41;;;;;;;8.52;2.15;;;28.50;58.00;;;;;;4983812;28;20115;-70
2021/12/13 07:59:29;;;;;;;6.70;2.05;;;28.10;59.00;;;;;;4983487;28;20039;-68
2021/12/13 08:02:18;;;;;;;4.80;1.80;;;28.30;58.70;;;;;;4985570;28;20082;-71
2021/12/13 08:04:48;;;;;;;8.15;3.03;;;27.70;59.50;;;;;;4986238;28;20064;-65
2021/12/13 08:07:19;;;;;;;9.05;2.90;;;27.30;61.70;;;;;;4985487;28;20122;-64
2021/12/13 08:09:50;;;;;;;5.53;2.10;;;27.10;62.10;;;;;;4985484;28;20075;-70
2021/12/13 08:12:37;;;;;;;9.10;2.80;;;27.00;62.40;;;;;;4986288;28;20027;-69
2021/12/13 08:15:27;;;;;;;7.10;2.38;;;26.80;63.00;;;;;;4986137;28;20031;-69
2021/12/13 08:17:58;;;;;;;10.77;2.38;;;26.50;64.40;;;;;;4984177;28;20034;-67
2021/12/13 08:20:48;;;;;;;5.88;2.10;;;26.40;65.00;;;;;;4983094;28;20038;-67
2021/12/13 08:23:25;;;;;;;7.13;2.60;;;26.20;65.00;;;;;;4983014;28;20042;-68
2021/12/13 08:25:56;;;;;;;6.07;2.50;;;25.10;68.50;;;;;;4986626;28;20058;-73
2021/12/13 08:28:39;;;;;;;9.00;2.72;;;24.00;72.60;;;;;;4984334;28;20073;-71
2021/12/13 08:31:11;;;;;;;9.60;2.33;;;23.30;76.10;;;;;;4984443;28;20390;-70
2021/12/13 08:33:40;;;;;;;7.30;2.00;;;22.80;79.10;;;;;;4985580;28;20106;-70
2021/12/13 08:36:10;;;;;;;11.95;2.80;;;22.50;82.10;;;;;;4984215;28;20124;-70
2021/12/13 08:38:55;;;;;;;9.32;2.70;;;22.30;84.70;;;;;;4981818;28;20022;-71
2021/12/13 08:41:51;;;;;;;10.98;2.33;;;22.00;88.30;;;;;;4983047;28;20499;-69
2021/12/13 08:44:38;;;;;;;7.47;2.35;;;22.00;90.70;;;;;;4978294;28;20510;-69
2021/12/13 08:47:10;;;;;;;8.20;1.92;;;21.80;91.10;;;;;;4984602;28;20038;-70
2021/12/13 08:49:48;;;;;;;7.65;2.55;;;21.30;93.00;;;;;;4981668;28;20628;-68
2021/12/13 08:52:15;;;;;;;10.70;2.63;;;21.00;95.00;;;;;;4985274;28;20156;-70
2021/12/13 08:54:48;;;;;;;6.32;2.40;;;20.80;96.60;;;;;;4982495;28;20074;-71
2021/12/13 08:57:45;;;;;;;10.98;2.75;;;20.60;97.80;;;;;;4980343;28;20084;-70
2021/12/13 09:00:35;;;;;;;7.10;2.10;;;20.40;99.40;;;;;;4982140;28;20194;-69
2021/12/13 09:03:11;;;;;;;11.35;2.55;;;20.30;99.90;;;;;;4981437;28;20067;-74
2021/12/13 09:06:00;;;;;;;9.52;2.28;;;20.20;99.90;;;;;;4982949;28;20370;-73
2021/12/13 09:08:41;;;;;;;7.63;2.20;;;20.10;99.90;;;;;;4982158;28;20140;-71
2021/12/13 09:11:17;;;;;;;7.97;2.85;;;20.00;99.90;;;;;;4981973;28;20552;-72
2021/12/13 09:14:04;;;;;;;14.73;2.70;;;20.00;99.90;;;;;;4982367;28;20608;-66
2021/12/13 09:17:14;;;;;;;8.73;2.55;;;19.90;99.90;;;;;;4965914;28;20593;-75
2021/12/13 09:20:18;;;;;;;8.15;1.90;;;19.80;99.90;;;;;;4982308;28;20130;-67
2021/12/13 09:22:47;;;;;;;12.38;2.47;;;19.70;99.90;;;;;;4979483;28;20061;-69
2021/12/13 09:25:14;;;;;;;6.90;1.70;;;19.60;99.90;;;;;;4977607;28;20034;-74
2021/12/13 09:28:06;;;;;;;10.45;2.42;;;19.50;99.90;;;;;;4975652;28;20045;-67
2021/12/13 09:30:56;;;;;;;9.40;2.15;;;19.50;99.90;;;;;;4980736;28;20049;-71
2021/12/13 09:33:32;;;;;;;7.53;2.22;;;19.50;99.90;;;;;;4976240;28;20482;-67
2021/12/13 09:36:04;;;;;;;9.55;2.63;;;19.40;99.90;;;;;;4969447;28;20029;-72
2021/12/13 09:38:40;;;;;;;9.15;2.78;;;19.40;99.90;;;;;;4976220;28;20034;-71
2021/12/13 09:41:35;;;;;;;10.98;2.88;;;19.30;99.90;;;;;;4976313;28;20239;-75
2021/12/13 09:44:11;;;;;;;10.55;2.70;;;19.30;99.90;;;;;;4981286;28;20037;-67
2021/12/13 09:46:59;;;;;;;11.02;2.88;;;19.20;99.90;;;;;;4982143;28;20129;-66
2021/12/13 09:49:35;;;;;;;6.93;2.03;;;19.20;99.90;;;;;;4982546;28;20030;-71
2021/12/13 09:52:25;;;;;;;7.00;1.80;;;19.20;99.90;;;;;;4982404;28;20091;-67
2021/12/13 09:55:16;;;;;;;7.75;2.35;;;19.20;99.90;;;;;;4996752;28;20026;-74
2021/12/13 09:58:06;;;;;;;7.82;2.42;;;19.30;99.90;;;;;;4982092;28;20034;-70
2021/12/13 10:01:06;;;;;;;13.18;2.83;;;19.30;99.90;;;;;;4989188;28;20502;-68
2021/12/13 10:03:43;;;;;;;8.10;2.53;;;19.30;99.90;;;;;;4989121;28;20495;-70
2021/12/13 10:06:12;;;;;;;7.20;2.28;;;19.20;99.90;;;;;;5001338;28;20026;-76
2021/12/13 10:08:54;;;;;;;7.55;3.63;;;19.20;99.90;;;;;;4987758;28;20034;-76
2021/12/13 10:11:26;;;;;;;6.22;2.20;;;19.10;99.90;;;;;;4986315;28;20143;-72
2021/12/13 10:13:57;;;;;;;8.40;2.67;;;19.10;99.90;;;;;;4986240;28;20051;-71
2021/12/13 10:16:31;;;;;;;7.05;2.83;;;19.00;99.90;;;;;;4988921;28;20159;-73
2021/12/13 10:18:59;;;;;;;8.85;2.97;;;19.00;99.90;;;;;;4987767;28;20264;-68
2021/12/13 10:21:31;;;;;;;10.75;3.20;;;19.00;99.90;;;;;;4983847;28;20115;-72
2021/12/13 10:24:11;;;;;;;8.25;2.88;;;19.00;99.90;;;;;;4986933;28;20033;-68
2021/12/13 10:26:42;;;;;;;7.45;2.33;;;19.00;99.90;;;;;;4987952;28;20576;-72
2021/12/13 10:29:13;;;;;;;4.85;2.03;;;19.00;99.90;;;;;;4987488;28;20089;-70
2021/12/13 10:31:48;;;;;;;6.72;2.83;;;18.90;99.90;;;;;;4989129;28;20026;-72
2021/12/13 10:34:25;;;;;;;8.50;2.40;;;18.90;99.90;;;;;;4986376;28;20053;-68
2021/12/13 10:37:00;;;;;;;9.63;2.55;;;18.80;99.90;;;;;;4984478;28;20117;-72
2021/12/13 10:39:33;;;;;;;10.88;2.58;;;18.80;99.90;;;;;;4983740;28;20050;-71
2021/12/13 10:42:06;;;;;;;8.32;2.33;;;18.80;99.90;;;;;;4985242;28;20038;-70
2021/12/13 10:44:33;;;;;;;8.88;2.63;;;18.70;99.90;;;;;;4985643;28;20091;-67
2021/12/13 10:47:05;;;;;;;9.45;2.25;;;18.60;99.90;;;;;;4985286;28;20396;-69
2021/12/13 10:49:36;;;;;;;9.20;2.88;;;18.60;99.90;;;;;;4984506;28;20031;-74
2021/12/13 10:52:16;;;;;;;12.23;3.08;;;18.60;99.90;;;;;;4984713;28;20507;-73
2021/12/13 10:54:58;;;;;;;9.55;2.90;;;18.60;99.90;;;;;;4985430;28;20028;-74
2021/12/13 10:57:34;;;;;;;8.80;2.47;;;18.50;99.90;;;;;;4985509;28;20041;-71
2021/12/13 11:00:07;;;;;;;10.13;3.05;;;18.30;99.90;;;;;;4979030;28;20506;-72
2021/12/13 11:02:36;;;;;;;13.40;3.30;;;18.10;99.90;;;;;;4977662;28;20034;-71
2021/12/13 11:05:09;;;;;;;7.47;2.40;;;18.00;99.90;;;;;;4979173;28;20153;-75
2021/12/13 11:07:37;;;;;;;7.68;2.42;;;18.00;99.90;;;;;;4978550;28;20540;-75
2021/12/13 11:10:09;;;;;;;6.82;2.50;;;18.00;99.90;;;;;;4976829;28;20074;-70
2021/12/13 11:12:48;;;;;;;9.85;2.72;;;18.10;99.90;;;;;;4976856;28;20486;-68
2021/12/13 11:15:24;;;;;;;7.07;3.03;;;18.20;99.90;;;;;;4976429;28;20542;-72
2021/12/13 11:17:52;;;;;;;8.13;2.50;;;18.10;99.90;;;;;;4976648;28;20061;-73
2021/12/13 11:20:33;;;;;;;8.70;2.08;;;18.10;99.90;;;;;;4976260;28;20033;-71
2021/12/13 11:23:02;;;;;;;7.80;2.20;;;18.00;99.90;;;;;;4977210;28;20033;-67
2021/12/13 11:25:42;;;;;;;8.88;2.50;;;17.90;99.90;;;;;;4976997;28;20042;-73
2021/12/13 11:28:10;;;;;;;10.35;2.50;;;17.80;99.90;;;;;;4977467;28;20057;-70
2021/12/13 11:30:39;;;;;;;5.78;2.35;;;17.70;99.90;;;;;;4988464;28;20037;-72
2021/12/13 11:33:22;;;;;;;5.90;2.28;;;17.60;99.90;;;;;;4977751;28;20048;-72
2021/12/13 11:35:55;;;;;;;7.93;2.63;;;17.70;99.90;;;;;;4977567;28;20451;-72
2021/12/13 11:38:48;;;;;;;7.95;2.42;;;17.90;99.90;;;;;;4977214;28;20494;-68
2021/12/13 11:41:39;;;;;;;11.32;3.75;;;17.90;99.90;;;;;;4972907;28;20046;-71
2021/12/13 11:44:21;;;;;;;9.25;4.35;;;17.70;99.90;;;;;;4977178;28;20030;-68
2021/12/13 11:47:26;;;;;;;11.55;4.82;;;17.50;99.90;;;;;;4975446;28;20453;-72
2021/12/13 11:50:29;;;;;;;12.13;3.53;;;17.30;99.90;;;;;;4977750;28;20749;-71
2021/12/13 11:53:31;;;;;;;8.70;3.17;;;17.30;99.90;;;;;;4978923;28;20041;-71
2021/12/13 11:56:11;;;;;;;11.35;3.60;;;17.30;99.90;;;;;;4977462;28;20038;-71
2021/12/13 11:58:59;;;;;;;13.10;3.30;;;17.30;99.90;;;;;;4979106;28;20031;-72
2021/12/13 12:02:10;;;;;;;14.30;2.90;;;17.30;99.90;;;;;;4978319;28;21077;-71
2021/12/13 12:05:13;;;;;;;8.10;2.45;;;17.30;99.90;;;;;;4981672;28;20482;-72
2021/12/13 12:07:58;;;;;;;;;;;17.20;99.90;;;;;;4980261;28;20466;-72
2021/12/13 12:10:28;;;;;;;9.82;2.85;;;17.10;99.90;;;;;;4980438;28;20741;-68
2021/12/13 12:13:04;;;;;;;9.45;2.65;;;17.00;99.90;;;;;;4981474;28;20121;-72
2021/12/13 12:15:34;;;;;;;8.05;2.55;;;16.90;99.90;;;;;;4982711;28;20406;-70
2021/12/13 12:18:04;;;;;;;10.48;2.78;;;16.80;99.90;;;;;;4983641;28;20041;-70
2021/12/13 12:20:42;;;;;;;9.63;3.10;;;16.70;99.90;;;;;;4978346;28;20026;-71
2021/12/13 12:23:23;;;;;;;13.35;3.17;;;16.70;99.90;;;;;;4983208;28;20065;-70
2021/12/13 12:25:50;;;;;;;11.27;2.75;;;16.60;99.90;;;;;;4980858;28;20038;-68
2021/12/13 12:28:18;;;;;;;11.57;2.97;;;16.60;99.90;;;;;;4985880;28;20030;-73
2021/12/13 12:30:51;;;;;;;13.40;3.63;;;16.80;99.90;;;;;;4982410;28;20053;-68
2021/12/13 12:33:35;;;;;;;11.52;3.30;;;16.80;99.90;;;;;;4981351;28;20145;-69
2021/12/13 12:36:07;;;;;;;13.23;3.08;;;16.70;99.90;;;;;;4983709;28;20792;-68
2021/12/13 12:39:10;;;;;;;13.75;3.28;;;16.60;99.90;;;;;;4990489;28;20066;-73
2021/12/13 12:41:56;;;;;;;12.15;3.17;;;16.60;99.90;;;;;;4979923;28;20056;-68
2021/12/13 12:44:32;;;;;;;9.80;3.20;;;16.60;99.90;;;;;;4982383;28;20468;-68
2021/12/13 12:47:00;;;;;;;9.13;3.00;;;16.60;99.90;;;;;;4982874;28;20084;-72
2021/12/13 12:49:27;;;;;;;16.40;3.42;;;16.50;99.90;;;;;;4983329;28;20041;-71
2021/12/13 12:52:03;;;;;;;8.50;2.83;;;16.50;99.90;;;;;;4982821;28;20026;-72
2021/12/13 12:54:35;;;;;;;11.43;3.58;;;16.50;99.90;;;;;;4981227;28;20022;-72
2021/12/13 12:57:04;;;;;;;11.65;2.50;;;16.40;99.90;;;;;;4982221;28;20490;-72
2021/12/13 12:59:39;;;;;;;9.45;2.97;;;16.20;99.90;;;;;;4982640;28;20441;-71
2021/12/13 13:02:06;;;;;;;15.48;2.85;;;16.20;99.90;;;;;;4980849;28;20031;-72
2021/12/13 13:04:42;;;;;;;17.92;3.63;;;16.10;99.90;;;;;;4987656;28;20071;-71
2021/12/13 13:07:13;;;;;;;21.63;4.13;;;16.20;99.90;;;;;;4983059;28;20312;-72
2021/12/13 13:09:44;;;;;;;18.77;4.30;;;16.20;99.90;;;;;;4982632;28;20457;-67
2021/12/13 13:12:35;;;;;;;28.65;5.05;;;16.30;99.90;;;;;;4980095;28;20091;-67
2021/12/13 13:15:09;;;;;;;16.67;4.15;;;16.20;99.90;;;;;;4973706;28;20054;-70
2021/12/13 13:17:40;;;;;;;26.75;6.10;;;16.20;99.90;;;;;;4982381;28;20453;-70
2021/12/13 13:20:18;;;;;;;39.97;7.35;;;16.30;99.90;;;;;;4980623;28;20338;-67
2021/12/13 13:22:47;;;;;;;26.73;5.93;;;16.20;99.90;;;;;;4979366;28;20038;-71
2021/12/13 13:25:24;;;;;;;15.68;5.00;;;16.20;99.90;;;;;;4982673;28;20081;-74
2021/12/13 13:27:52;;;;;;;18.50;4.10;;;16.20;99.90;;;;;;4980913;28;20512;-68
2021/12/13 13:30:38;;;;;;;15.48;3.72;;;16.10;99.90;;;;;;4983308;28;20085;-71
2021/12/13 13:33:05;;;;;;;15.10;3.67;;;16.00;99.90;;;;;;4981455;28;20089;-71
2021/12/13 13:35:33;;;;;;;18.20;4.35;;;15.90;99.90;;;;;;4982836;28;20537;-71
2021/12/13 13:38:00;;;;;;;14.07;3.88;;;15.80;99.90;;;;;;4982708;28;20582;-69
2021/12/13 13:40:32;;;;;;;17.48;3.90;;;15.80;99.90;;;;;;4979753;28;20038;-65
2021/12/13 13:43:08;;;;;;;14.30;3.97;;;15.70;99.90;;;;;;4988799;28;20077;-66
2021/12/13 13:45:38;;;;;;;22.38;5.03;;;15.60;99.90;;;;;;4982385;28;20051;-67
2021/12/13 13:48:08;;;;;;;21.20;4.82;;;15.70;99.90;;;;;;4974237;28;20121;-72
2021/12/13 13:50:44;;;;;;;27.02;5.63;;;15.70;99.90;;;;;;4981156;28;20022;-66